createdAt,value
2023-03-31T00:00:58.122Z,100216.66
2023-03-31T00:03:25.605Z,100207.00
2023-03-31T00:06:01.906Z,100200.00
2023-03-31T00:08:35.968Z,100195.59
2023-03-31T00:11:07.746Z,100197.41
2023-03-31T00:13:36.741Z,100186.00
2023-03-31T00:16:09.213Z,100185.16
2023-03-31T00:18:37.630Z,100184.28
2023-03-31T00:21:14.963Z,100176.41
2023-03-31T00:23:42.470Z,100173.75
2023-03-31T00:26:09.657Z,100162.41
2023-03-31T00:28:36.726Z,100156.28
2023-03-31T00:31:04.388Z,100144.03
2023-03-31T00:33:31.617Z,100148.50
2023-03-31T00:36:02.371Z,100144.09
2023-03-31T00:38:30.342Z,100130.97
2023-03-31T00:40:57.750Z,100135.38
2023-03-31T00:43:38.694Z,100128.38
2023-03-31T00:46:27.697Z,100116.03
2023-03-31T00:48:58.227Z,100110.81
2023-03-31T00:51:32.147Z,100107.28
2023-03-31T00:54:05.097Z,100099.41
2023-03-31T00:56:45.034Z,100098.53
2023-03-31T00:59:14.040Z,100094.16
2023-03-31T01:01:46.219Z,100095.03
2023-03-31T01:04:16.522Z,100090.63
2023-03-31T01:07:00.978Z,100087.09
2023-03-31T01:09:35.073Z,100090.59
2023-03-31T01:12:06.417Z,100076.56
2023-03-31T01:14:34.184Z,100082.66
2023-03-31T01:17:02.776Z,100077.41
2023-03-31T01:20:13.936Z,100072.09
2023-03-31T01:23:31.032Z,100069.47
2023-03-31T01:26:38.786Z,100065.97
2023-03-31T01:29:39.426Z,100053.69
2023-03-31T01:32:36.965Z,100061.59
2023-03-31T01:35:48.826Z,100053.69
2023-03-31T01:38:53.929Z,100044.88
2023-03-31T01:42:12.614Z,100037.84
2023-03-31T01:45:18.323Z,100037.81
2023-03-31T01:47:58.240Z,100021.13
2023-03-31T01:50:38.350Z,100013.19
2023-03-31T01:53:40.463Z,100007.94
2023-03-31T01:56:13.495Z,99998.25
2023-03-31T01:58:59.261Z,99985.06
2023-03-31T02:01:57.430Z,99973.69
2023-03-31T02:04:37.634Z,99964.91
2023-03-31T02:07:31.992Z,99955.28
2023-03-31T02:10:03.982Z,99939.47
2023-03-31T02:12:34.097Z,99929.84
2023-03-31T02:15:05.213Z,99914.94
2023-03-31T02:17:33.074Z,99909.66
2023-03-31T02:20:06.423Z,99900.09
2023-03-31T02:22:37.937Z,99893.81
2023-03-31T02:25:10.073Z,99885.94
2023-03-31T02:27:43.147Z,99880.75
2023-03-31T02:30:12.190Z,99882.50
2023-03-31T02:32:41.424Z,99867.56
2023-03-31T02:35:17.297Z,99852.69
2023-03-31T02:37:45.619Z,99853.59
2023-03-31T02:40:22.961Z,99839.53
2023-03-31T02:42:50.440Z,99835.19
2023-03-31T02:45:46.889Z,99829.00
2023-03-31T02:48:27.691Z,99813.22
2023-03-31T02:51:16.516Z,99804.44
2023-03-31T02:54:07.604Z,99789.53
2023-03-31T02:56:55.900Z,99775.50
2023-03-31T03:00:10.402Z,99774.63
2023-03-31T03:03:09.740Z,99771.09
2023-03-31T03:06:06.478Z,99757.97
2023-03-31T03:08:42.476Z,99752.69
2023-03-31T03:11:46.730Z,99747.44
2023-03-31T03:14:28.519Z,99729.03
2023-03-31T03:17:17.889Z,99736.09
2023-03-31T03:19:50.752Z,99742.25
2023-03-31T03:22:17.976Z,99729.94
2023-03-31T03:24:45.179Z,99729.03
2023-03-31T03:27:12.220Z,99731.63
2023-03-31T03:29:39.771Z,99735.22
2023-03-31T03:32:07.047Z,99729.06
2023-03-31T03:34:34.237Z,99727.31
2023-03-31T03:37:01.328Z,99717.66
2023-03-31T03:39:28.481Z,99707.97
2023-03-31T03:41:55.681Z,99693.97
2023-03-31T03:44:22.716Z,99688.69
2023-03-31T03:46:49.895Z,99688.72
2023-03-31T03:49:17.250Z,99680.88
2023-03-31T03:51:44.378Z,99678.28
2023-03-31T03:54:12.634Z,99661.66
2023-03-31T03:56:39.700Z,99657.28
2023-03-31T03:59:07.103Z,99644.13
2023-03-31T04:01:34.142Z,99637.13
2023-03-31T04:04:01.203Z,99637.19
2023-03-31T04:06:28.309Z,99633.69
2023-03-31T04:08:55.355Z,99628.44
2023-03-31T04:11:23.198Z,99612.66
2023-03-31T04:13:50.238Z,99616.19
2023-03-31T04:16:17.331Z,99606.53
2023-03-31T04:18:44.596Z,99598.63
2023-03-31T04:21:15.861Z,99601.28
2023-03-31T04:23:46.898Z,99590.78
2023-03-31T04:26:16.830Z,99584.63
2023-03-31T04:28:47.017Z,99574.13
2023-03-31T04:31:16.690Z,99578.56
2023-03-31T04:33:46.362Z,99562.78
2023-03-31T04:36:19.663Z,99561.00
2023-03-31T04:38:51.006Z,99561.88
2023-03-31T04:41:18.897Z,99552.25
2023-03-31T04:43:46.200Z,99537.41
2023-03-31T04:46:13.824Z,99529.56
2023-03-31T04:48:41.277Z,99528.72
2023-03-31T04:51:09.491Z,99527.00
2023-03-31T04:53:36.759Z,99521.75
2023-03-31T04:56:04.496Z,99508.59
2023-03-31T04:58:31.691Z,99524.38
2023-03-31T05:00:58.911Z,99551.59
2023-03-31T05:03:26.553Z,99541.06
2023-03-31T05:05:53.769Z,99536.69
2023-03-31T05:08:21.279Z,99518.38
2023-03-31T05:10:48.364Z,99516.69
2023-03-31T05:13:16.010Z,99504.44
2023-03-31T05:15:45.096Z,99490.41
2023-03-31T05:18:12.290Z,99486.91
2023-03-31T05:20:39.460Z,99473.84
2023-03-31T05:23:07.022Z,99453.72
2023-03-31T05:25:34.573Z,99460.75
2023-03-31T05:28:02.561Z,99455.47
2023-03-31T05:30:29.990Z,99445.81
2023-03-31T05:32:57.463Z,99447.53
2023-03-31T05:35:24.947Z,99442.25
2023-03-31T05:37:52.038Z,99445.69
2023-03-31T05:40:19.361Z,99445.59
2023-03-31T05:42:46.409Z,99441.16
2023-03-31T05:45:13.741Z,99443.75
2023-03-31T05:47:40.843Z,99450.75
2023-03-31T05:50:09.398Z,99441.06
2023-03-31T05:52:36.931Z,99427.94
2023-03-31T05:55:07.985Z,99425.38
2023-03-31T05:57:34.988Z,99424.47
2023-03-31T06:00:03.753Z,99410.47
2023-03-31T06:02:31.405Z,99405.19
2023-03-31T06:04:58.893Z,99409.59
2023-03-31T06:07:26.184Z,99399.00
2023-03-31T06:09:53.461Z,99395.50
2023-03-31T06:12:20.607Z,99390.22
2023-03-31T06:14:47.621Z,99398.09
2023-03-31T06:17:14.594Z,99391.91
2023-03-31T06:19:41.770Z,99385.69
2023-03-31T06:22:08.809Z,99397.91
2023-03-31T06:24:35.838Z,99378.56
2023-03-31T06:27:04.166Z,99379.41
2023-03-31T06:29:31.285Z,99367.06
2023-03-31T06:31:58.943Z,99364.44
2023-03-31T06:34:26.293Z,99364.38
2023-03-31T06:36:53.551Z,99370.44
2023-03-31T06:39:20.775Z,99373.84
2023-03-31T06:41:47.950Z,99365.91
2023-03-31T06:44:16.747Z,99364.09
2023-03-31T06:46:44.237Z,99365.78
2023-03-31T06:49:11.538Z,99361.31
2023-03-31T06:51:38.660Z,99358.63
2023-03-31T06:54:06.508Z,99346.34
2023-03-31T06:56:33.836Z,99356.06
2023-03-31T06:59:01.065Z,99352.56
2023-03-31T07:01:28.233Z,99348.25
2023-03-31T07:03:55.565Z,99343.09
2023-03-31T07:06:22.576Z,99334.38
2023-03-31T07:08:49.659Z,99337.06
2023-03-31T07:11:16.752Z,99337.06
2023-03-31T07:13:43.838Z,99343.22
2023-03-31T07:16:13.834Z,99328.25
2023-03-31T07:18:42.140Z,99329.13
2023-03-31T07:21:10.245Z,99319.41
2023-03-31T07:23:38.011Z,99324.56
2023-03-31T07:26:06.472Z,99315.63
2023-03-31T07:28:33.886Z,99323.34
2023-03-31T07:31:01.304Z,99325.59
2023-03-31T07:33:28.611Z,99334.81
2023-03-31T07:36:08.232Z,99334.19
2023-03-31T07:38:45.784Z,99339.50
2023-03-31T07:41:16.549Z,99336.38
2023-03-31T07:43:44.244Z,99330.06
2023-03-31T07:46:27.250Z,99343.13
2023-03-31T07:48:56.820Z,99320.13
2023-03-31T07:51:27.046Z,99320.72
2023-03-31T07:53:54.257Z,99328.25
2023-03-31T07:56:24.491Z,99324.38
2023-03-31T07:58:55.314Z,99316.97
2023-03-31T08:01:26.326Z,99314.94
2023-03-31T08:03:55.962Z,99311.19
2023-03-31T08:06:25.743Z,99318.00
2023-03-31T08:08:52.973Z,99321.78
2023-03-31T08:11:21.650Z,99311.88
2023-03-31T08:13:49.463Z,99312.88
2023-03-31T08:16:17.299Z,99302.59
2023-03-31T08:18:44.541Z,99302.31
2023-03-31T08:21:11.771Z,99291.78
2023-03-31T08:23:38.832Z,99297.50
2023-03-31T08:26:18.205Z,99291.50
2023-03-31T08:28:46.476Z,99292.06
2023-03-31T08:31:16.651Z,99297.09
2023-03-31T08:33:44.411Z,99290.00
2023-03-31T08:36:12.331Z,99291.09
2023-03-31T08:38:42.242Z,99297.25
2023-03-31T08:41:44.268Z,99293.94
2023-03-31T08:44:22.767Z,99295.59
2023-03-31T08:46:53.975Z,99292.09
2023-03-31T08:49:22.527Z,99293.97
2023-03-31T08:51:56.010Z,99292.19
2023-03-31T08:54:46.703Z,99287.47
2023-03-31T08:57:45.454Z,99290.59
2023-03-31T09:00:19.933Z,99295.28
2023-03-31T09:03:07.427Z,99285.06
2023-03-31T09:05:57.321Z,99296.03
2023-03-31T09:08:38.671Z,99284.59
2023-03-31T09:11:37.217Z,99280.19
2023-03-31T09:14:42.839Z,99287.38
2023-03-31T09:17:39.124Z,99282.53
2023-03-31T09:20:13.520Z,99275.19
2023-03-31T09:22:51.257Z,99268.09
2023-03-31T09:25:27.899Z,99270.59
2023-03-31T09:27:59.840Z,99267.16
2023-03-31T09:30:34.069Z,99257.41
2023-03-31T09:33:16.303Z,99257.34
2023-03-31T09:35:46.299Z,99248.59
2023-03-31T09:38:15.935Z,99262.56
2023-03-31T09:40:48.716Z,99248.25
2023-03-31T09:43:26.541Z,99254.19
2023-03-31T09:46:08.542Z,99249.41
2023-03-31T09:48:40.180Z,99254.38
2023-03-31T09:51:14.523Z,99230.06
2023-03-31T09:53:52.619Z,99239.41
2023-03-31T09:56:42.179Z,99242.34
2023-03-31T09:59:34.900Z,99230.22
2023-03-31T10:02:34.559Z,99242.47
2023-03-31T10:05:03.538Z,99249.22
2023-03-31T10:07:31.468Z,99228.97
2023-03-31T10:09:58.811Z,99238.59
2023-03-31T10:12:32.044Z,99234.81
2023-03-31T10:15:26.430Z,99244.06
2023-03-31T10:17:55.423Z,99233.16
2023-03-31T10:20:43.123Z,99220.69
2023-03-31T10:23:29.837Z,99219.69
2023-03-31T10:25:57.432Z,99216.03
2023-03-31T10:28:25.529Z,99231.75
2023-03-31T10:30:57.769Z,99216.84
2023-03-31T10:33:28.051Z,99220.63
2023-03-31T10:36:01.129Z,99213.59
2023-03-31T10:38:37.448Z,99211.72
2023-03-31T10:41:04.975Z,99217.69
2023-03-31T10:43:48.000Z,99217.13
2023-03-31T10:46:15.050Z,99214.59
2023-03-31T10:48:44.457Z,99205.13
2023-03-31T10:51:20.068Z,99207.56
2023-03-31T10:53:49.861Z,99201.41
2023-03-31T10:56:26.249Z,99193.09
2023-03-31T10:59:15.231Z,99191.53
2023-03-31T11:02:00.953Z,99188.94
2023-03-31T11:04:54.134Z,99185.88
2023-03-31T11:07:27.651Z,99185.84
2023-03-31T11:10:21.759Z,99184.59
2023-03-31T11:13:05.905Z,99170.31
2023-03-31T11:15:38.832Z,99177.75
2023-03-31T11:18:43.261Z,99182.56
2023-03-31T11:21:34.894Z,99181.25
2023-03-31T11:24:48.674Z,99177.97
2023-03-31T11:27:36.552Z,99178.09
2023-03-31T11:30:24.852Z,99178.84
2023-03-31T11:33:23.560Z,99170.56
2023-03-31T11:36:12.341Z,99166.41
2023-03-31T11:39:11.279Z,99158.41
2023-03-31T11:41:49.699Z,99165.88
2023-03-31T11:44:20.427Z,99148.59
2023-03-31T11:47:00.103Z,99154.03
2023-03-31T11:49:55.425Z,99147.81
2023-03-31T11:52:37.696Z,99157.56
2023-03-31T11:55:22.008Z,99160.50
2023-03-31T11:58:04.769Z,99146.16
2023-03-31T12:00:52.816Z,99151.38
2023-03-31T12:04:17.620Z,99164.72
2023-03-31T12:06:47.223Z,99152.59
2023-03-31T12:09:48.804Z,99153.81
2023-03-31T12:12:32.276Z,99155.72
2023-03-31T12:15:14.678Z,99154.09
2023-03-31T12:17:49.584Z,99152.81
2023-03-31T12:20:41.680Z,99150.75
2023-03-31T12:23:19.940Z,99138.16
2023-03-31T12:26:11.497Z,99142.72
2023-03-31T12:28:40.691Z,99135.25
2023-03-31T12:31:13.516Z,99128.94
2023-03-31T12:34:00.851Z,99114.94
2023-03-31T12:37:01.389Z,99105.16
2023-03-31T12:39:54.833Z,99101.53
2023-03-31T12:43:03.424Z,99098.16
2023-03-31T12:45:39.437Z,99101.00
2023-03-31T12:48:24.469Z,99086.59
2023-03-31T12:50:54.097Z,99086.44
2023-03-31T12:54:09.814Z,99087.75
2023-03-31T12:57:04.559Z,99083.00
2023-03-31T12:59:41.743Z,99066.78
2023-03-31T13:02:11.638Z,99086.75
2023-03-31T13:04:39.448Z,99082.91
2023-03-31T13:07:28.330Z,99079.69
2023-03-31T13:10:21.538Z,99089.47
2023-03-31T13:13:06.701Z,99089.44
2023-03-31T13:15:34.108Z,99099.44
2023-03-31T13:18:07.395Z,99103.72
2023-03-31T13:20:40.965Z,99075.97
2023-03-31T13:23:22.716Z,99087.53
2023-03-31T13:25:52.188Z,99091.56
2023-03-31T13:28:21.949Z,99080.03
2023-03-31T13:30:54.065Z,99078.66
2023-03-31T13:33:57.773Z,99054.16
2023-03-31T13:36:58.675Z,99070.34
2023-03-31T13:40:32.961Z,99069.44
2023-03-31T13:44:00.139Z,99069.09
2023-03-31T13:46:51.189Z,99070.03
2023-03-31T13:49:47.112Z,99075.41
2023-03-31T13:52:20.969Z,99057.06
2023-03-31T13:55:24.141Z,99065.22
2023-03-31T13:58:35.035Z,99053.59
2023-03-31T14:01:34.257Z,99066.28
2023-03-31T14:04:48.883Z,99069.72
2023-03-31T14:07:23.155Z,99058.88
2023-03-31T14:09:54.143Z,99048.16
2023-03-31T14:12:25.780Z,99062.28
2023-03-31T14:14:56.284Z,99053.56
2023-03-31T14:17:38.233Z,99042.69
2023-03-31T14:20:55.189Z,99042.78
2023-03-31T14:23:38.684Z,99037.72
2023-03-31T14:26:36.926Z,99034.38
2023-03-31T14:29:36.296Z,99032.16
2023-03-31T14:32:38.705Z,99033.47
2023-03-31T14:35:38.669Z,99028.69
2023-03-31T14:38:20.775Z,99036.22
2023-03-31T14:40:56.330Z,99034.06
2023-03-31T14:43:37.021Z,99034.63
2023-03-31T14:46:09.757Z,99034.81
2023-03-31T14:48:47.992Z,99029.38
2023-03-31T14:51:19.082Z,99032.72
2023-03-31T14:53:46.309Z,99029.13
2023-03-31T14:56:20.816Z,99019.41
2023-03-31T14:58:54.418Z,99019.69
2023-03-31T15:01:35.850Z,99027.44
2023-03-31T15:04:13.805Z,99034.41
2023-03-31T15:06:44.672Z,99027.03
2023-03-31T15:09:23.746Z,99028.47
2023-03-31T15:12:00.518Z,99035.78
2023-03-31T15:14:54.972Z,99023.06
2023-03-31T15:17:28.177Z,99018.78
2023-03-31T15:19:58.794Z,99025.81
2023-03-31T15:22:29.059Z,99015.94
2023-03-31T15:24:57.309Z,99021.94
2023-03-31T15:27:38.080Z,99013.47
2023-03-31T15:30:18.974Z,98999.84
2023-03-31T15:32:46.954Z,99013.69
2023-03-31T15:35:33.271Z,99004.78
2023-03-31T15:38:04.177Z,99013.88
2023-03-31T15:40:41.080Z,99007.81
2023-03-31T15:43:28.757Z,99014.28
2023-03-31T15:46:00.041Z,99001.44
2023-03-31T15:48:48.878Z,99004.44
2023-03-31T15:51:30.402Z,98996.75
2023-03-31T15:53:57.730Z,98991.66
2023-03-31T15:56:44.715Z,98994.50
2023-03-31T15:59:37.934Z,98991.56
2023-03-31T16:02:19.182Z,98989.28
2023-03-31T16:04:58.827Z,98998.13
2023-03-31T16:07:33.730Z,98998.31
2023-03-31T16:10:22.201Z,98995.97
2023-03-31T16:13:01.991Z,98986.59
2023-03-31T16:15:41.213Z,98982.53
2023-03-31T16:18:26.159Z,98996.81
2023-03-31T16:21:01.931Z,98985.41
2023-03-31T16:23:34.123Z,98994.06
2023-03-31T16:26:02.118Z,98984.25
2023-03-31T16:28:37.487Z,98993.81
2023-03-31T16:31:26.241Z,98971.72
2023-03-31T16:33:57.197Z,98985.91
2023-03-31T16:36:24.387Z,98981.72
2023-03-31T16:38:55.159Z,98976.50
2023-03-31T16:41:23.524Z,98962.56
2023-03-31T16:43:54.274Z,98969.50
2023-03-31T16:46:23.604Z,98981.72
2023-03-31T16:48:51.854Z,98971.22
2023-03-31T16:51:19.359Z,98968.72
2023-03-31T16:53:47.817Z,98983.00
2023-03-31T16:56:15.769Z,98983.47
2023-03-31T16:58:43.964Z,98988.34
2023-03-31T17:01:11.894Z,98987.16
2023-03-31T17:03:41.713Z,98992.84
2023-03-31T17:06:13.222Z,98990.53
2023-03-31T17:08:40.950Z,99000.31
2023-03-31T17:11:12.070Z,98998.72
2023-03-31T17:13:41.707Z,98990.94
2023-03-31T17:16:19.097Z,98994.63
2023-03-31T17:18:51.424Z,98995.44
2023-03-31T17:21:19.414Z,98992.19
2023-03-31T17:23:47.863Z,98991.22
2023-03-31T17:26:16.056Z,98993.91
2023-03-31T17:28:43.667Z,98992.31
2023-03-31T17:31:20.570Z,98990.63
2023-03-31T17:33:48.327Z,98986.41
2023-03-31T17:36:16.583Z,99000.50
2023-03-31T17:38:43.916Z,98991.88
2023-03-31T17:41:13.902Z,98990.31
2023-03-31T17:43:45.848Z,98978.28
2023-03-31T17:46:13.793Z,98982.75
2023-03-31T17:48:43.190Z,98988.91
2023-03-31T17:51:16.549Z,98985.41
2023-03-31T17:53:46.203Z,98977.56
2023-03-31T17:56:15.626Z,98970.56
2023-03-31T17:58:42.962Z,98978.59
2023-03-31T18:01:11.837Z,98985.66
2023-03-31T18:03:39.235Z,98988.41
2023-03-31T18:06:13.026Z,98985.03
2023-03-31T18:08:42.045Z,98989.44
2023-03-31T18:11:10.774Z,98984.16
2023-03-31T18:13:38.844Z,98987.69
2023-03-31T18:16:13.113Z,98985.22
2023-03-31T18:18:41.594Z,98973.03
2023-03-31T18:21:13.182Z,98980.25
2023-03-31T18:23:41.803Z,98983.88
2023-03-31T18:26:13.403Z,98978.72
2023-03-31T18:28:41.245Z,98979.72
2023-03-31T18:31:09.863Z,98990.41
2023-03-31T18:33:37.389Z,98987.84
2023-03-31T18:36:06.177Z,98983.69
2023-03-31T18:38:34.568Z,98986.31
2023-03-31T18:41:01.831Z,98979.38
2023-03-31T18:43:31.400Z,98984.69
2023-03-31T18:46:01.332Z,98977.72
2023-03-31T18:48:29.319Z,98980.22
2023-03-31T18:50:56.649Z,98983.63
2023-03-31T18:53:25.345Z,98991.56
2023-03-31T18:55:56.620Z,98990.75
2023-03-31T18:58:25.689Z,98991.59
2023-03-31T19:00:52.866Z,98992.53
2023-03-31T19:03:20.423Z,98991.72
2023-03-31T19:05:48.039Z,98993.69
2023-03-31T19:08:15.404Z,98994.59
2023-03-31T19:10:42.676Z,98992.97
2023-03-31T19:13:15.921Z,98998.25
2023-03-31T19:15:43.322Z,98993.84
2023-03-31T19:18:15.055Z,99000.88
2023-03-31T19:20:42.212Z,98996.53
2023-03-31T19:23:09.599Z,99010.78
2023-03-31T19:25:37.040Z,99012.59
2023-03-31T19:28:04.144Z,99003.78
2023-03-31T19:30:31.310Z,99015.25
2023-03-31T19:32:58.480Z,99006.56
2023-03-31T19:35:27.243Z,99013.53
2023-03-31T19:37:54.855Z,99011.75
2023-03-31T19:40:22.318Z,99023.19
2023-03-31T19:42:49.369Z,99010.09
2023-03-31T19:45:16.640Z,99015.31
2023-03-31T19:47:43.910Z,99004.78
2023-03-31T19:50:11.575Z,99010.91
2023-03-31T19:52:38.839Z,99011.91
2023-03-31T19:55:06.566Z,99003.13
2023-03-31T19:57:33.750Z,99008.38
2023-03-31T20:00:02.634Z,99010.94
2023-03-31T20:02:31.761Z,99002.19
2023-03-31T20:04:59.103Z,99004.81
2023-03-31T20:07:26.529Z,99001.22
2023-03-31T20:09:53.677Z,98998.59
2023-03-31T20:12:20.832Z,98992.47
2023-03-31T20:14:47.973Z,98987.22
2023-03-31T20:17:15.642Z,98999.56
2023-03-31T20:19:43.348Z,98997.94
2023-03-31T20:22:10.444Z,99000.59
2023-03-31T20:24:38.545Z,98993.63
2023-03-31T20:27:05.712Z,98987.56
2023-03-31T20:29:32.925Z,98990.22
2023-03-31T20:32:00.280Z,98985.94
2023-03-31T20:34:27.696Z,98991.19
2023-03-31T20:36:55.004Z,98983.44
2023-03-31T20:39:22.098Z,98985.19
2023-03-31T20:41:50.489Z,98989.50
2023-03-31T20:44:17.553Z,98987.81
2023-03-31T20:46:45.095Z,98981.75
2023-03-31T20:49:12.626Z,98987.94
2023-03-31T20:51:40.059Z,98977.44
2023-03-31T20:54:08.381Z,98990.56
2023-03-31T20:56:39.597Z,98990.59
2023-03-31T20:59:11.271Z,98985.31
2023-03-31T21:01:39.415Z,98988.75
2023-03-31T21:04:08.989Z,98985.53
2023-03-31T21:06:46.035Z,98983.16
2023-03-31T21:09:15.225Z,98990.22
2023-03-31T21:11:42.554Z,98986.78
2023-03-31T21:14:17.403Z,98992.84
2023-03-31T21:16:44.833Z,98996.38
2023-03-31T21:19:12.360Z,98994.59
2023-03-31T21:21:41.680Z,98997.19
2023-03-31T21:24:11.640Z,99000.72
2023-03-31T21:26:39.623Z,98992.84
2023-03-31T21:29:07.038Z,98999.97
2023-03-31T21:31:34.248Z,98988.72
2023-03-31T21:34:02.798Z,98992.19
2023-03-31T21:36:30.105Z,98992.19
2023-03-31T21:38:57.922Z,98994.72
2023-03-31T21:41:30.660Z,98989.44
2023-03-31T21:44:01.706Z,98985.16
2023-03-31T21:46:33.115Z,98992.19
2023-03-31T21:49:01.200Z,98990.47
2023-03-31T21:51:28.900Z,98998.38
2023-03-31T21:53:56.638Z,98991.34
2023-03-31T21:56:25.802Z,98985.22
2023-03-31T21:58:53.311Z,98993.16
2023-03-31T22:01:21.974Z,98991.44
2023-03-31T22:03:50.958Z,98994.00
2023-03-31T22:06:18.772Z,98993.09
2023-03-31T22:08:46.399Z,98986.94
2023-03-31T22:11:14.710Z,98994.81
2023-03-31T22:13:42.585Z,98993.09
2023-03-31T22:16:20.759Z,98997.56
2023-03-31T22:18:50.194Z,98996.66
2023-03-31T22:21:26.849Z,99003.63
2023-03-31T22:23:57.981Z,98996.59
2023-03-31T22:26:27.369Z,98988.66
2023-03-31T22:28:55.463Z,99001.81
2023-03-31T22:31:23.076Z,99002.69
2023-03-31T22:33:50.487Z,99005.34
2023-03-31T22:36:17.648Z,98984.28
2023-03-31T22:38:45.172Z,98992.25
2023-03-31T22:41:12.308Z,98997.50
2023-03-31T22:43:39.832Z,98999.28
2023-03-31T22:46:08.029Z,98997.50
2023-03-31T22:48:35.415Z,99003.56
2023-03-31T22:51:05.887Z,99004.47
2023-03-31T22:53:33.582Z,99015.84
2023-03-31T22:56:11.937Z,99001.84
2023-03-31T22:58:39.446Z,99006.25
2023-03-31T23:01:09.982Z,99008.03
2023-03-31T23:03:37.535Z,99006.25
2023-03-31T23:06:06.267Z,99016.78
2023-03-31T23:08:35.858Z,99009.75
2023-03-31T23:11:09.152Z,99006.31
2023-03-31T23:13:36.540Z,99013.31
2023-03-31T23:16:24.776Z,99002.00
2023-03-31T23:18:53.968Z,99002.00
2023-03-31T23:21:25.817Z,99003.72
2023-03-31T23:23:56.587Z,99001.09
2023-03-31T23:26:26.323Z,99008.97
2023-03-31T23:28:54.144Z,99007.25
2023-03-31T23:31:25.799Z,99006.34
2023-03-31T23:33:53.382Z,99005.53
2023-03-31T23:36:21.552Z,98999.41
2023-03-31T23:38:50.660Z,98994.19
2023-03-31T23:41:19.694Z,99003.03
2023-03-31T23:43:47.168Z,98987.31
2023-03-31T23:46:14.428Z,98998.66
2023-03-31T23:48:41.581Z,98988.97
2023-03-31T23:51:09.945Z,98998.56
2023-03-31T23:53:37.705Z,99006.50
2023-03-31T23:56:12.671Z,99003.97
2023-03-31T23:58:42.880Z,98995.22
